Terminal Aerodrome Forecast
Issued by NWS

Home | Current Version | Previous Version | Text Only | Print | Product List | Glossary On
Versions: 1 2 3 4 5 6 7 8 9 10 11 12 13 14 15 16 17 18 19 20 21 22 23 24 25 26 27 28 29 30 31 32 33 34 35 36
351
FTAK31 PAFC 200540
TAFAAQ
TAF
PAAQ 200540Z 2006/2106 13015G25KT P6SM VCSH SCT080 OVC100
     FM200700 13008KT 4SM -SHSN BR OVC015
     FM201500 13006KT P6SM OVC025
     FM210200 13010KT P6SM OVC100=

USA.gov is the U.S. government's official web portal to all federal, state and local government web resources and services.